Time;durP1;ratioP1;P1;durP2;ratioP2;P2;SDS_P1;SDS_P2;PMS_P1;PMS_P2;Temp;Humidity;BMP_temperature;BMP_pressure;BME280_temperature;BME280_humidity;BME280_pressure;Samples;Min_cycle;Max_cycle;Signal;HPM_P1;HPM_P2
2022/06/23 00:01:13;;;;;;;30.65;6.85;;;;;;;;;;5030070;28;20024;-43
2022/06/23 00:03:40;;;;;;;33.22;7.22;;;;;;;;;;5023902;28;20035;-44
2022/06/23 00:06:09;;;;;;;36.30;7.80;;;;;;;;;;5028605;28;20060;-43
2022/06/23 00:08:45;;;;;;;30.17;5.65;;;;;;;;;;5032594;28;20029;-43
2022/06/23 00:11:22;;;;;;;39.25;7.22;;;;;;;;;;5033451;28;20453;-44
2022/06/23 00:13:48;;;;;;;47.95;9.63;;;;;;;;;;5026107;28;20037;-45
2022/06/23 00:16:26;;;;;;;41.90;7.38;;;;;;;;;;5027290;28;20028;-44
2022/06/23 00:18:52;;;;;;;35.50;6.80;;;;;;;;;;5029135;28;20424;-45
2022/06/23 00:21:30;;;;;;;43.10;8.07;;;;;;;;;;5031975;28;20466;-43
2022/06/23 00:24:00;;;;;;;27.80;7.85;;;;;;;;;;5026213;28;20044;-44
2022/06/23 00:26:31;;;;;;;27.27;6.68;;;;;;;;;;5039351;28;20377;-44
2022/06/23 00:29:01;;;;;;;28.02;5.90;;;;;;;;;;5033984;28;20033;-43
2022/06/23 00:31:36;;;;;;;24.85;6.55;;;;;;;;;;5029444;28;21276;-43
2022/06/23 00:34:27;;;;;;;21.83;6.70;;;;;;;;;;5026950;28;20041;-44
2022/06/23 00:37:07;;;;;;;36.43;6.33;;;;;;;;;;5029147;28;20104;-43
2022/06/23 00:39:38;;;;;;;23.58;6.30;;;;;;;;;;5031323;28;20033;-44
2022/06/23 00:42:16;;;;;;;25.10;6.87;;;;;;;;;;5031068;28;20068;-45
2022/06/23 00:45:03;;;;;;;30.05;6.65;;;;;;;;;;5032531;28;20267;-43
2022/06/23 00:48:01;;;;;;;27.58;7.63;;;;;;;;;;5034616;28;20021;-43
2022/06/23 00:50:32;;;;;;;32.90;8.05;;;;;;;;;;5026261;28;20113;-44
2022/06/23 00:53:13;;;;;;;28.98;6.53;;;;;;;;;;5036543;28;20032;-44
2022/06/23 00:55:57;;;;;;;32.83;7.85;;;;;;;;;;5028128;28;20147;-43
2022/06/23 00:58:44;;;;;;;32.15;6.90;;;;;;;;;;5029724;28;20092;-43
2022/06/23 01:01:21;;;;;;;38.80;7.25;;;;;;;;;;5034307;28;20041;-44
2022/06/23 01:04:13;;;;;;;35.83;7.68;;;;;;;;;;5033434;28;20440;-45
2022/06/23 01:06:44;;;;;;;30.40;8.07;;;;;;;;;;5029636;28;20029;-43
2022/06/23 01:09:17;;;;;;;;;;;;;;;;;;5030453;28;20056;-43
2022/06/23 01:11:53;;;;;;;25.40;6.65;;;;;;;;;;5027535;28;19925;-43
2022/06/23 01:14:30;;;;;;;31.42;7.85;;;;;;;;;;5030932;28;20484;-44
2022/06/23 01:17:07;;;;;;;30.10;6.60;;;;;;;;;;5031083;28;20037;-44
2022/06/23 01:19:51;;;;;;;37.20;7.10;;;;;;;;;;5026180;28;20036;-44
2022/06/23 01:22:41;;;;;;;50.33;8.60;;;;;;;;;;5024245;28;20025;-44
2022/06/23 01:25:33;;;;;;;30.35;6.68;;;;;;;;;;5029163;28;20037;-43
2022/06/23 01:28:04;;;;;;;39.03;8.07;;;;;;;;;;5027669;28;20049;-42
2022/06/23 01:30:36;;;;;;;42.65;7.30;;;;;;;;;;5029891;28;20123;-43
2022/06/23 01:33:30;;;;;;;34.42;7.65;;;;;;;;;;5027243;28;20045;-43
2022/06/23 01:36:03;;;;;;;32.03;7.25;;;;;;;;;;5028460;28;20052;-44
2022/06/23 01:38:34;;;;;;;29.50;6.35;;;;;;;;;;5034144;28;20463;-46
2022/06/23 01:41:11;;;;;;;37.00;7.63;;;;;;;;;;5034684;28;20045;-43
2022/06/23 01:43:44;;;;;;;21.45;5.80;;;;;;;;;;5033564;28;20044;-44
2022/06/23 01:46:24;;;;;;;35.40;7.43;;;;;;;;;;5030474;28;20051;-46
2022/06/23 01:49:02;;;;;;;36.58;7.35;;;;;;;;;;5032116;28;20030;-44
2022/06/23 01:51:37;;;;;;;33.42;7.13;;;;;;;;;;5031842;28;20397;-46
2022/06/23 01:54:27;;;;;;;32.58;6.88;;;;;;;;;;5029626;28;20040;-44
2022/06/23 01:57:07;;;;;;;27.20;6.47;;;;;;;;;;5030320;28;20121;-44
2022/06/23 02:00:05;;;;;;;38.47;8.50;;;;;;;;;;5031688;28;20067;-44
2022/06/23 02:02:43;;;;;;;36.92;6.93;;;;;;;;;;5030466;28;20021;-43
2022/06/23 02:05:24;;;;;;;32.65;7.15;;;;;;;;;;5034810;28;20037;-44
2022/06/23 02:07:53;;;;;;;26.58;7.10;;;;;;;;;;5031939;28;20032;-43
2022/06/23 02:10:24;;;;;;;33.17;7.90;;;;;;;;;;5031087;28;20075;-43
2022/06/23 02:13:02;;;;;;;31.23;7.40;;;;;;;;;;5031490;28;20026;-45
2022/06/23 02:15:54;;;;;;;23.65;7.10;;;;;;;;;;5033080;28;20044;-43
2022/06/23 02:18:45;;;;;;;26.42;7.50;;;;;;;;;;5021601;28;20050;-43
2022/06/23 02:21:19;;;;;;;26.33;6.53;;;;;;;;;;5030917;28;20029;-43
2022/06/23 02:24:01;;;;;;;25.05;6.70;;;;;;;;;;5033128;28;20030;-43
2022/06/23 02:26:41;;;;;;;29.85;7.32;;;;;;;;;;5024888;28;20030;-43
2022/06/23 02:29:21;;;;;;;37.83;6.90;;;;;;;;;;5033558;28;20065;-43
2022/06/23 02:31:49;;;;;;;38.38;7.60;;;;;;;;;;5046690;28;20038;-44
2022/06/23 02:34:22;;;;;;;33.63;7.35;;;;;;;;;;5024306;28;21729;-44
2022/06/23 02:37:25;;;;;;;30.65;8.68;;;;;;;;;;5026515;28;20045;-44
2022/06/23 02:39:57;;;;;;;27.27;7.03;;;;;;;;;;5029894;28;20758;-43
2022/06/23 02:42:31;;;;;;;39.33;7.90;;;;;;;;;;5029287;28;20556;-46
2022/06/23 02:45:19;;;;;;;37.55;7.80;;;;;;;;;;5027315;28;20053;-44
2022/06/23 02:48:14;;;;;;;37.50;6.85;;;;;;;;;;5026189;28;20041;-45
2022/06/23 02:50:53;;;;;;;36.17;7.68;;;;;;;;;;5034679;28;20048;-46
2022/06/23 02:53:48;;;;;;;35.55;6.97;;;;;;;;;;5028243;28;20040;-45
2022/06/23 02:56:26;;;;;;;38.75;7.38;;;;;;;;;;5034500;28;20045;-43
2022/06/23 02:59:09;;;;;;;34.88;6.97;;;;;;;;;;5035115;28;20040;-43
2022/06/23 03:01:47;;;;;;;32.58;6.80;;;;;;;;;;5031863;28;20170;-43
2022/06/23 03:04:24;;;;;;;33.20;8.10;;;;;;;;;;5024289;28;20453;-44
2022/06/23 03:06:49;;;;;;;39.28;7.63;;;;;;;;;;5023009;28;20030;-43
2022/06/23 03:09:20;;;;;;;46.17;8.73;;;;;;;;;;5027516;28;20032;-43
2022/06/23 03:11:55;;;;;;;41.10;8.23;;;;;;;;;;5024365;28;20039;-44
2022/06/23 03:14:30;;;;;;;36.55;8.10;;;;;;;;;;5029089;28;20021;-43
2022/06/23 03:17:04;;;;;;;36.45;8.40;;;;;;;;;;5027741;28;20041;-44
2022/06/23 03:19:39;;;;;;;41.83;7.70;;;;;;;;;;5033421;28;20590;-48
2022/06/23 03:22:21;;;;;;;44.05;7.65;;;;;;;;;;5028719;28;20087;-43
2022/06/23 03:25:14;;;;;;;34.30;7.20;;;;;;;;;;5026557;28;20104;-43
2022/06/23 03:27:41;;;;;;;40.60;8.25;;;;;;;;;;5028477;28;20367;-44
2022/06/23 03:30:16;;;;;;;32.90;8.35;;;;;;;;;;5030547;28;20119;-44
2022/06/23 03:32:46;;;;;;;34.70;6.40;;;;;;;;;;5025490;28;20504;-44
2022/06/23 03:35:37;;;;;;;35.63;7.55;;;;;;;;;;5029005;28;20037;-43
2022/06/23 03:38:10;;;;;;;31.33;7.80;;;;;;;;;;5037809;28;20051;-44
2022/06/23 03:43:48;;;;;;;34.75;7.20;;;;;;;;;;5023596;28;20034;-43
2022/06/23 03:46:24;;;;;;;30.45;6.45;;;;;;;;;;5024336;28;20032;-45
2022/06/23 03:48:54;;;;;;;31.67;7.22;;;;;;;;;;5025746;28;20071;-44
2022/06/23 03:51:28;;;;;;;33.03;8.20;;;;;;;;;;5029769;28;20436;-46
2022/06/23 03:54:10;;;;;;;45.95;8.45;;;;;;;;;;5026958;28;20097;-44
2022/06/23 03:56:49;;;;;;;31.85;7.05;;;;;;;;;;5023742;28;20036;-45
2022/06/23 03:59:21;;;;;;;31.40;6.82;;;;;;;;;;5037221;28;20486;-42
2022/06/23 04:02:09;;;;;;;;;;;;;;;;;;5035042;28;20540;-43
2022/06/23 04:05:00;;;;;;;32.45;6.97;;;;;;;;;;5028393;28;20011;-42
2022/06/23 04:07:27;;;;;;;36.42;7.18;;;;;;;;;;5023454;28;20017;-43
2022/06/23 04:09:58;;;;;;;36.97;7.85;;;;;;;;;;5034263;28;20033;-43
2022/06/23 04:12:24;;;;;;;43.10;8.63;;;;;;;;;;5028456;28;20033;-43
2022/06/23 04:15:05;;;;;;;31.92;7.05;;;;;;;;;;5030665;28;20449;-43
2022/06/23 04:17:45;;;;;;;43.65;8.40;;;;;;;;;;5024354;28;20036;-47
2022/06/23 04:20:20;;;;;;;40.85;7.60;;;;;;;;;;5030660;28;20058;-44
2022/06/23 04:22:51;;;;;;;27.95;7.43;;;;;;;;;;5031940;28;20026;-43
2022/06/23 04:25:31;;;;;;;36.50;8.52;;;;;;;;;;5023806;28;20296;-45
2022/06/23 04:28:00;;;;;;;40.65;7.53;;;;;;;;;;5024400;28;20606;-44
2022/06/23 04:30:32;;;;;;;35.80;7.43;;;;;;;;;;5030096;28;20029;-43
2022/06/23 04:33:01;;;;;;;39.67;7.93;;;;;;;;;;5028596;28;20103;-44
2022/06/23 04:35:35;;;;;;;41.67;7.40;;;;;;;;;;5029855;28;20033;-44
2022/06/23 04:38:06;;;;;;;31.25;7.20;;;;;;;;;;5029248;28;20033;-44
2022/06/23 04:40:48;;;;;;;22.65;7.57;;;;;;;;;;5026300;28;20061;-43
2022/06/23 04:43:29;;;;;;;37.78;7.72;;;;;;;;;;5027148;28;20119;-44
2022/06/23 04:46:07;;;;;;;31.40;7.10;;;;;;;;;;5020762;28;20038;-44
2022/06/23 04:48:39;;;;;;;32.67;7.80;;;;;;;;;;5013646;28;20367;-44
2022/06/23 04:51:15;;;;;;;33.78;8.25;;;;;;;;;;5022678;28;20033;-45
2022/06/23 04:53:47;;;;;;;41.70;8.10;;;;;;;;;;5024373;28;20061;-43
2022/06/23 04:56:18;;;;;;;;;;;;;;;;;;5032804;28;20033;-45
2022/06/23 04:58:51;;;;;;;27.57;7.43;;;;;;;;;;5030222;28;19948;-43
2022/06/23 05:01:19;;;;;;;42.13;8.18;;;;;;;;;;5030246;28;20274;-45
2022/06/23 05:03:53;;;;;;;43.03;8.18;;;;;;;;;;5030565;28;20026;-43
2022/06/23 05:06:39;;;;;;;33.25;7.53;;;;;;;;;;5028473;28;20042;-44
2022/06/23 05:09:19;;;;;;;43.58;8.07;;;;;;;;;;5029955;28;20581;-43
2022/06/23 05:11:58;;;;;;;34.20;8.45;;;;;;;;;;5035122;28;20026;-44
2022/06/23 05:14:44;;;;;;;35.67;7.93;;;;;;;;;;5033149;28;20636;-44
2022/06/23 05:17:31;;;;;;;28.90;7.18;;;;;;;;;;5035697;28;20029;-45
2022/06/23 05:20:01;;;;;;;34.05;7.63;;;;;;;;;;5034622;28;20021;-43
2022/06/23 05:22:38;;;;;;;27.98;7.57;;;;;;;;;;5034781;28;20022;-44
2022/06/23 05:25:16;;;;;;;29.52;7.68;;;;;;;;;;5034232;28;20048;-46
2022/06/23 05:27:45;;;;;;;29.00;6.88;;;;;;;;;;5029697;28;20116;-44
2022/06/23 05:30:31;;;;;;;29.00;7.05;;;;;;;;;;5026531;28;20038;-44
2022/06/23 05:33:04;;;;;;;36.95;7.15;;;;;;;;;;5028177;28;20056;-43
2022/06/23 05:35:34;;;;;;;36.10;7.57;;;;;;;;;;5036326;28;20440;-44
2022/06/23 05:38:07;;;;;;;28.05;7.40;;;;;;;;;;5023365;28;20018;-44
2022/06/23 05:40:52;;;;;;;29.00;7.22;;;;;;;;;;5025290;28;20021;-44
2022/06/23 05:43:18;;;;;;;34.78;7.78;;;;;;;;;;5028734;28;20437;-46
2022/06/23 05:45:54;;;;;;;35.97;7.68;;;;;;;;;;5023946;28;20022;-44
2022/06/23 05:48:37;;;;;;;27.98;6.97;;;;;;;;;;5025574;28;20461;-47
2022/06/23 05:51:06;;;;;;;31.70;7.72;;;;;;;;;;5025600;28;20034;-47
2022/06/23 05:54:00;;;;;;;30.30;7.28;;;;;;;;;;5015416;28;20554;-44
2022/06/23 05:56:36;;;;;;;39.90;7.82;;;;;;;;;;5011323;28;20174;-44
2022/06/23 05:59:10;;;;;;;28.10;7.65;;;;;;;;;;5017744;28;20034;-44
2022/06/23 06:01:41;;;;;;;28.33;7.15;;;;;;;;;;5017469;28;20045;-44
2022/06/23 06:04:27;;;;;;;30.77;7.70;;;;;;;;;;5012672;28;20032;-43
2022/06/23 06:06:53;;;;;;;30.23;6.97;;;;;;;;;;5016122;28;20033;-44
2022/06/23 06:09:35;;;;;;;30.92;7.60;;;;;;;;;;5027356;28;20036;-44
2022/06/23 06:12:05;;;;;;;32.60;7.30;;;;;;;;;;5029331;28;20099;-44
2022/06/23 06:14:36;;;;;;;30.08;7.35;;;;;;;;;;5013090;28;20037;-44
2022/06/23 06:17:02;;;;;;;30.13;7.63;;;;;;;;;;5028860;28;20579;-44
2022/06/23 06:19:31;;;;;;;34.63;6.88;;;;;;;;;;5027513;28;20033;-46
2022/06/23 06:22:01;;;;;;;28.35;6.80;;;;;;;;;;5026140;28;20037;-44
2022/06/23 06:24:35;;;;;;;34.10;6.95;;;;;;;;;;5016248;28;20038;-43
2022/06/23 06:27:03;;;;;;;31.17;6.97;;;;;;;;;;5024488;28;20052;-44
2022/06/23 06:29:35;;;;;;;32.05;7.70;;;;;;;;;;5019251;28;20489;-43
2022/06/23 06:32:03;;;;;;;32.70;7.38;;;;;;;;;;5021380;28;20033;-44
2022/06/23 06:34:35;;;;;;;29.40;7.10;;;;;;;;;;5029363;28;20033;-44
2022/06/23 06:37:01;;;;;;;37.05;6.55;;;;;;;;;;5031875;28;20178;-44
2022/06/23 06:39:31;;;;;;;22.02;6.45;;;;;;;;;;5029300;28;20034;-44
2022/06/23 06:42:13;;;;;;;29.80;6.57;;;;;;;;;;5031230;28;20033;-44
2022/06/23 06:44:42;;;;;;;24.17;6.53;;;;;;;;;;5028303;28;20289;-44
2022/06/23 06:47:17;;;;;;;27.55;7.05;;;;;;;;;;5030347;28;20044;-44
2022/06/23 06:49:44;;;;;;;33.03;6.88;;;;;;;;;;5034603;28;20513;-44
2022/06/23 06:52:11;;;;;;;29.67;7.60;;;;;;;;;;5028955;28;20037;-44
2022/06/23 06:54:50;;;;;;;27.75;7.32;;;;;;;;;;5032744;28;20044;-47
2022/06/23 06:57:28;;;;;;;24.70;6.88;;;;;;;;;;5023634;28;20029;-45
2022/06/23 07:00:11;;;;;;;24.38;6.80;;;;;;;;;;5024653;28;20116;-44
2022/06/23 07:02:50;;;;;;;27.63;6.90;;;;;;;;;;5033235;28;20036;-44
2022/06/23 07:05:43;;;;;;;30.63;7.38;;;;;;;;;;5028005;28;20425;-44
2022/06/23 07:08:15;;;;;;;24.77;6.10;;;;;;;;;;5034762;28;20139;-43
2022/06/23 07:11:03;;;;;;;24.15;6.60;;;;;;;;;;5029100;28;20026;-46
2022/06/23 07:13:58;;;;;;;25.75;6.82;;;;;;;;;;5024128;28;20041;-46
2022/06/23 07:16:40;;;;;;;21.40;6.18;;;;;;;;;;5015590;28;20057;-46
2022/06/23 07:19:21;;;;;;;24.23;6.70;;;;;;;;;;5024906;28;20033;-44
2022/06/23 07:22:11;;;;;;;33.22;7.45;;;;;;;;;;5018279;28;20064;-44
2022/06/23 07:25:02;;;;;;;33.83;7.22;;;;;;;;;;5026665;28;20042;-44
2022/06/23 07:27:39;;;;;;;31.48;6.60;;;;;;;;;;5023262;28;20045;-45
2022/06/23 07:30:14;;;;;;;35.67;7.53;;;;;;;;;;5017959;28;20038;-44
2022/06/23 07:32:54;;;;;;;27.52;7.47;;;;;;;;;;5024643;28;20487;-46
2022/06/23 07:35:23;;;;;;;26.10;7.53;;;;;;;;;;5024335;28;20551;-45
2022/06/23 07:38:00;;;;;;;23.98;6.72;;;;;;;;;;5011774;28;20041;-46
2022/06/23 07:40:30;;;;;;;23.20;7.20;;;;;;;;;;5019859;28;20117;-43
2022/06/23 07:43:13;;;;;;;31.85;7.80;;;;;;;;;;5020412;28;20033;-44
2022/06/23 07:46:01;;;;;;;22.88;7.10;;;;;;;;;;5024541;28;20562;-46
2022/06/23 07:48:30;;;;;;;29.48;7.40;;;;;;;;;;5031283;28;20026;-46
2022/06/23 07:50:58;;;;;;;23.23;6.70;;;;;;;;;;5029373;28;20045;-44
2022/06/23 07:53:34;;;;;;;22.75;6.95;;;;;;;;;;5030954;28;20100;-46
2022/06/23 07:56:00;;;;;;;33.17;6.40;;;;;;;;;;5030569;28;20048;-44
2022/06/23 07:58:32;;;;;;;38.08;7.65;;;;;;;;;;5016989;28;20511;-46
2022/06/23 08:01:08;;;;;;;29.73;6.90;;;;;;;;;;5029229;28;20037;-44
2022/06/23 08:03:52;;;;;;;31.33;6.90;;;;;;;;;;5023582;28;20030;-44
2022/06/23 08:06:21;;;;;;;31.08;7.38;;;;;;;;;;5018506;28;20121;-44
2022/06/23 08:08:54;;;;;;;30.50;6.57;;;;;;;;;;5021976;28;20029;-46
2022/06/23 08:14:35;;;;;;;28.33;6.07;;;;;;;;;;5031327;28;20386;-46
2022/06/23 08:17:07;;;;;;;36.05;5.78;;;;;;;;;;5032855;28;20032;-44
2022/06/23 08:19:51;;;;;;;23.30;5.00;;;;;;;;;;5028470;28;20108;-44
2022/06/23 08:22:21;;;;;;;24.58;6.10;;;;;;;;;;5027400;28;20025;-44
2022/06/23 08:24:51;;;;;;;26.25;6.25;;;;;;;;;;5028909;28;20429;-45
2022/06/23 08:27:20;;;;;;;21.50;5.63;;;;;;;;;;5024799;28;20036;-44
2022/06/23 08:29:55;;;;;;;27.70;6.10;;;;;;;;;;5026284;28;20026;-45
2022/06/23 08:32:23;;;;;;;29.00;5.55;;;;;;;;;;5028956;28;20104;-44
2022/06/23 08:34:57;;;;;;;18.52;5.40;;;;;;;;;;5032484;28;20029;-44
2022/06/23 08:37:24;;;;;;;28.15;5.97;;;;;;;;;;5033114;28;20116;-45
2022/06/23 08:40:00;;;;;;;26.75;5.72;;;;;;;;;;5024881;28;20029;-44
2022/06/23 08:42:52;;;;;;;29.05;5.65;;;;;;;;;;5019362;28;20112;-44
2022/06/23 08:45:18;;;;;;;;;;;;;;;;;;5021993;28;20017;-44
2022/06/23 08:48:07;;;;;;;16.00;4.75;;;;;;;;;;5029087;28;20323;-46
2022/06/23 08:50:48;;;;;;;22.30;5.80;;;;;;;;;;5030046;28;20033;-44
2022/06/23 08:53:23;;;;;;;28.02;5.70;;;;;;;;;;5036080;28;20108;-44
2022/06/23 08:55:58;;;;;;;33.83;5.20;;;;;;;;;;5033358;28;20064;-44
2022/06/23 08:58:35;;;;;;;18.48;4.05;;;;;;;;;;5025204;28;20086;-44
2022/06/23 09:01:08;;;;;;;26.25;4.43;;;;;;;;;;5031699;28;20029;-46
2022/06/23 09:03:55;;;;;;;26.60;5.22;;;;;;;;;;5026029;28;20064;-44
2022/06/23 09:06:51;;;;;;;15.15;4.35;;;;;;;;;;5026920;28;20051;-44
2022/06/23 09:09:33;;;;;;;15.63;4.03;;;;;;;;;;5023360;28;20466;-44
2022/06/23 09:12:16;;;;;;;14.05;4.22;;;;;;;;;;5022802;28;20041;-44
2022/06/23 09:15:03;;;;;;;20.08;4.53;;;;;;;;;;5030673;28;20046;-45
2022/06/23 09:18:14;;;;;;;21.00;5.55;;;;;;;;;;5032732;28;20036;-43
2022/06/23 09:20:48;;;;;;;32.00;5.50;;;;;;;;;;5032292;28;20053;-44
2022/06/23 09:23:13;;;;;;;27.15;5.90;;;;;;;;;;5038506;28;20490;-45
2022/06/23 09:25:58;;;;;;;22.88;4.68;;;;;;;;;;5022098;28;20057;-45
2022/06/23 09:28:48;;;;;;;26.00;4.95;;;;;;;;;;5024135;28;20022;-45
2022/06/23 09:31:35;;;;;;;18.98;4.38;;;;;;;;;;5031368;28;20069;-45
2022/06/23 09:34:19;;;;;;;20.25;4.38;;;;;;;;;;5030516;28;20086;-45
2022/06/23 09:37:09;;;;;;;22.48;4.35;;;;;;;;;;5027054;28;20032;-45
2022/06/23 09:39:40;;;;;;;24.73;4.85;;;;;;;;;;5032263;28;20893;-46
2022/06/23 09:42:35;;;;;;;22.58;4.93;;;;;;;;;;5032628;28;20041;-47
2022/06/23 09:45:06;;;;;;;20.48;3.95;;;;;;;;;;5030989;28;20037;-45
2022/06/23 09:47:41;;;;;;;23.75;4.63;;;;;;;;;;5034586;28;20032;-45
2022/06/23 09:50:29;;;;;;;29.25;5.10;;;;;;;;;;5034660;28;20112;-45
2022/06/23 09:53:02;;;;;;;22.42;5.03;;;;;;;;;;5028475;28;20476;-45
2022/06/23 09:55:37;;;;;;;26.95;4.93;;;;;;;;;;5027964;28;20128;-44
2022/06/23 09:58:31;;;;;;;18.58;4.22;;;;;;;;;;5032357;28;20052;-45
2022/06/23 10:01:06;;;;;;;24.05;4.63;;;;;;;;;;5026598;28;20026;-44
2022/06/23 10:03:35;;;;;;;19.27;4.05;;;;;;;;;;5030705;28;20036;-44
2022/06/23 10:06:34;;;;;;;16.30;4.07;;;;;;;;;;5030796;28;20040;-48
2022/06/23 10:09:36;;;;;;;21.45;4.43;;;;;;;;;;5026464;28;20034;-45
2022/06/23 10:12:20;;;;;;;24.88;3.70;;;;;;;;;;5030744;28;20033;-44
2022/06/23 10:14:48;;;;;;;15.48;3.58;;;;;;;;;;5027174;28;20045;-43
2022/06/23 10:17:34;;;;;;;14.05;4.22;;;;;;;;;;5032773;28;20028;-44
2022/06/23 10:20:26;;;;;;;15.52;3.75;;;;;;;;;;5031966;28;20512;-44
2022/06/23 10:23:12;;;;;;;20.17;4.18;;;;;;;;;;5032523;28;20025;-44
2022/06/23 10:26:01;;;;;;;13.98;4.18;;;;;;;;;;5028214;28;20048;-46
2022/06/23 10:28:51;;;;;;;15.15;3.95;;;;;;;;;;5024222;28;20080;-44
2022/06/23 10:31:51;;;;;;;30.20;4.38;;;;;;;;;;5014721;28;20041;-45
2022/06/23 10:34:30;;;;;;;23.55;5.07;;;;;;;;;;5027962;28;20096;-45
2022/06/23 10:37:32;;;;;;;24.95;4.78;;;;;;;;;;5029274;28;20044;-47
2022/06/23 10:40:20;;;;;;;19.45;4.35;;;;;;;;;;5025266;28;20045;-44
2022/06/23 10:42:45;;;;;;;20.63;4.70;;;;;;;;;;5027663;28;20028;-44
2022/06/23 10:45:16;;;;;;;22.75;4.55;;;;;;;;;;5027440;28;20030;-44
2022/06/23 10:47:57;;;;;;;20.98;4.85;;;;;;;;;;5026742;28;22165;-46
2022/06/23 10:50:32;;;;;;;15.75;4.70;;;;;;;;;;5014476;28;20116;-43
2022/06/23 10:53:13;;;;;;;18.10;4.88;;;;;;;;;;5013230;28;20107;-48
2022/06/23 10:55:58;;;;;;;22.58;4.75;;;;;;;;;;5013596;28;20073;-44
2022/06/23 10:58:49;;;;;;;19.33;4.32;;;;;;;;;;5020948;28;20091;-43
2022/06/23 11:01:43;;;;;;;23.17;6.10;;;;;;;;;;5021805;28;20037;-43
2022/06/23 11:04:38;;;;;;;16.88;4.15;;;;;;;;;;5024926;28;20033;-43
2022/06/23 11:07:05;;;;;;;17.88;4.10;;;;;;;;;;5027345;28;20083;-43
2022/06/23 11:10:06;;;;;;;17.90;4.78;;;;;;;;;;5028542;28;20037;-43
2022/06/23 11:12:53;;;;;;;19.25;4.85;;;;;;;;;;5020125;28;20021;-45
2022/06/23 11:15:28;;;;;;;22.58;4.70;;;;;;;;;;5025760;28;20134;-45
2022/06/23 11:17:56;;;;;;;27.15;4.75;;;;;;;;;;5027302;28;25413;-45
2022/06/23 11:20:36;;;;;;;17.45;4.63;;;;;;;;;;5029306;28;20040;-45
2022/06/23 11:23:14;;;;;;;20.52;5.13;;;;;;;;;;5029587;28;20111;-44
2022/06/23 11:25:58;;;;;;;15.35;4.30;;;;;;;;;;5024346;28;20040;-46
2022/06/23 11:28:47;;;;;;;17.85;4.35;;;;;;;;;;5028045;28;20065;-45
2022/06/23 11:31:37;;;;;;;20.80;4.20;;;;;;;;;;5010928;28;20069;-44
2022/06/23 11:34:18;;;;;;;25.75;4.65;;;;;;;;;;5006871;28;20038;-44
2022/06/23 11:37:01;;;;;;;18.52;4.35;;;;;;;;;;5006540;28;20041;-46
2022/06/23 11:40:04;;;;;;;24.60;4.85;;;;;;;;;;5009572;28;20025;-43
2022/06/23 11:43:13;;;;;;;23.70;4.82;;;;;;;;;;5006473;28;20106;-48
2022/06/23 11:46:26;;;;;;;20.25;3.90;;;;;;;;;;5007010;28;20471;-43
2022/06/23 11:49:10;;;;;;;18.77;4.38;;;;;;;;;;5001501;28;20049;-46
2022/06/23 11:51:50;;;;;;;29.42;5.18;;;;;;;;;;5011630;28;20038;-46
2022/06/23 11:54:40;;;;;;;26.67;4.82;;;;;;;;;;5009969;28;20106;-44
2022/06/23 11:57:19;;;;;;;17.90;4.55;;;;;;;;;;5009488;28;20085;-44
2022/06/23 12:00:00;;;;;;;19.77;4.45;;;;;;;;;;5011583;28;20531;-46
2022/06/23 12:02:27;;;;;;;18.77;4.75;;;;;;;;;;4996063;28;20034;-44
2022/06/23 12:04:59;;;;;;;19.00;5.13;;;;;;;;;;5003125;28;20050;-44
2022/06/23 12:07:35;;;;;;;;;;;;;;;;;;5010104;28;20038;-46
2022/06/23 12:10:13;;;;;;;18.63;4.20;;;;;;;;;;5026843;28;20393;-44
2022/06/23 12:12:42;;;;;;;18.70;4.95;;;;;;;;;;5027861;28;20076;-45
2022/06/23 12:15:09;;;;;;;16.20;4.78;;;;;;;;;;5020980;28;20052;-48
2022/06/23 12:17:43;;;;;;;18.60;5.00;;;;;;;;;;5028121;28;20670;-44
2022/06/23 12:20:38;;;;;;;22.20;4.35;;;;;;;;;;5025354;28;20065;-46
2022/06/23 12:23:16;;;;;;;20.08;5.13;;;;;;;;;;5022372;28;20033;-44
2022/06/23 12:25:57;;;;;;;18.52;3.83;;;;;;;;;;5020148;28;20732;-47
2022/06/23 12:28:30;;;;;;;24.10;4.53;;;;;;;;;;5036756;28;20037;-45
2022/06/23 12:31:10;;;;;;;16.65;4.20;;;;;;;;;;5018200;28;20097;-44
2022/06/23 12:33:48;;;;;;;19.65;4.05;;;;;;;;;;5024549;28;20055;-44
2022/06/23 12:36:33;;;;;;;14.25;4.00;;;;;;;;;;5033665;28;20025;-44
2022/06/23 12:39:09;;;;;;;18.00;4.90;;;;;;;;;;5035558;28;20040;-44
2022/06/23 12:41:46;;;;;;;23.30;4.03;;;;;;;;;;5036672;28;20040;-45
2022/06/23 12:44:21;;;;;;;18.80;4.65;;;;;;;;;;5031328;28;20025;-43
2022/06/23 12:47:09;;;;;;;20.45;4.38;;;;;;;;;;5034344;28;20129;-44
2022/06/23 12:50:08;;;;;;;23.23;4.40;;;;;;;;;;5028628;28;20068;-45
2022/06/23 12:53:02;;;;;;;19.05;4.80;;;;;;;;;;5027670;28;20041;-46
2022/06/23 12:55:56;;;;;;;21.60;4.55;;;;;;;;;;5027317;28;20055;-43
2022/06/23 12:58:28;;;;;;;20.85;4.68;;;;;;;;;;5027963;28;20034;-48
2022/06/23 13:01:02;;;;;;;17.40;3.95;;;;;;;;;;5028216;28;20551;-44
2022/06/23 13:03:55;;;;;;;24.13;4.72;;;;;;;;;;5030059;28;20037;-44
2022/06/23 13:06:36;;;;;;;17.95;4.38;;;;;;;;;;5027883;28;20036;-45
2022/06/23 13:09:41;;;;;;;17.35;3.90;;;;;;;;;;5028817;28;20030;-46
2022/06/23 13:12:15;;;;;;;21.60;4.00;;;;;;;;;;5037262;28;20423;-44
2022/06/23 13:15:00;;;;;;;17.48;4.40;;;;;;;;;;5034101;28;20044;-44
2022/06/23 13:17:32;;;;;;;25.13;4.93;;;;;;;;;;5034867;28;20033;-44
2022/06/23 13:20:47;;;;;;;15.45;3.67;;;;;;;;;;5036971;28;20068;-47
2022/06/23 13:23:20;;;;;;;19.98;4.32;;;;;;;;;;5048665;28;20118;-44
2022/06/23 13:25:54;;;;;;;19.77;4.80;;;;;;;;;;5033803;28;20047;-44
2022/06/23 13:28:29;;;;;;;25.40;4.63;;;;;;;;;;5044029;28;20071;-46
2022/06/23 13:30:59;;;;;;;20.38;4.10;;;;;;;;;;5039742;28;20414;-44
2022/06/23 13:33:35;;;;;;;24.88;4.07;;;;;;;;;;5047113;28;20141;-43
2022/06/23 13:36:13;;;;;;;15.30;3.83;;;;;;;;;;5037660;28;20025;-44
2022/06/23 13:38:48;;;;;;;27.02;5.85;;;;;;;;;;5048258;28;20398;-44
2022/06/23 13:41:25;;;;;;;18.10;3.55;;;;;;;;;;5050357;28;20076;-43
2022/06/23 13:43:53;;;;;;;23.17;4.25;;;;;;;;;;5040212;28;20112;-43
2022/06/23 13:46:36;;;;;;;17.98;4.75;;;;;;;;;;5046351;28;20060;-44
2022/06/23 13:49:11;;;;;;;18.77;4.28;;;;;;;;;;5040726;28;20029;-47
2022/06/23 13:51:49;;;;;;;23.65;4.50;;;;;;;;;;5045561;28;20564;-43
2022/06/23 13:54:22;;;;;;;20.52;4.07;;;;;;;;;;5044637;28;20115;-46
2022/06/23 13:57:08;;;;;;;19.90;4.30;;;;;;;;;;5053052;28;20138;-43
2022/06/23 13:59:49;;;;;;;13.15;4.18;;;;;;;;;;5022592;28;20109;-45
2022/06/23 14:02:39;;;;;;;18.73;4.00;;;;;;;;;;4992259;28;20033;-43
2022/06/23 14:05:51;;;;;;;24.25;4.20;;;;;;;;;;4986944;28;20516;-44
2022/06/23 14:08:20;;;;;;;19.17;4.60;;;;;;;;;;4989823;28;20029;-45
2022/06/23 14:10:56;;;;;;;24.42;4.72;;;;;;;;;;4988637;28;20038;-44
2022/06/23 14:13:25;;;;;;;18.02;4.75;;;;;;;;;;4993418;28;20045;-46
2022/06/23 14:15:50;;;;;;;20.73;5.10;;;;;;;;;;4988627;28;20061;-44
2022/06/23 14:18:46;;;;;;;20.08;5.35;;;;;;;;;;4994388;28;20068;-44
2022/06/23 14:21:16;;;;;;;16.45;3.80;;;;;;;;;;4981599;28;20125;-44
2022/06/23 14:23:46;;;;;;;17.10;4.10;;;;;;;;;;4988326;28;20396;-44
2022/06/23 14:26:18;;;;;;;20.80;4.70;;;;;;;;;;4986373;28;20040;-45
2022/06/23 14:29:00;;;;;;;21.67;4.82;;;;;;;;;;4985432;28;20110;-44
2022/06/23 14:31:39;;;;;;;17.73;4.30;;;;;;;;;;4985772;28;20046;-44
2022/06/23 14:34:37;;;;;;;29.85;4.45;;;;;;;;;;4987364;28;20538;-45
2022/06/23 14:37:22;;;;;;;19.33;4.57;;;;;;;;;;4990117;28;20046;-44
2022/06/23 14:40:04;;;;;;;16.38;3.78;;;;;;;;;;4995385;28;20027;-44
2022/06/23 14:42:54;;;;;;;18.35;3.97;;;;;;;;;;4991316;28;20029;-44
2022/06/23 14:45:40;;;;;;;22.85;4.43;;;;;;;;;;4984466;28;20031;-44
2022/06/23 14:48:30;;;;;;;30.23;4.25;;;;;;;;;;4987907;28;20500;-44
2022/06/23 14:51:09;;;;;;;20.30;5.05;;;;;;;;;;4989180;28;20053;-45
2022/06/23 14:53:43;;;;;;;25.75;4.43;;;;;;;;;;4985755;28;20034;-44
2022/06/23 14:56:38;;;;;;;21.08;4.30;;;;;;;;;;5015490;28;20422;-46
2022/06/23 14:59:13;;;;;;;22.35;4.45;;;;;;;;;;5032277;28;20033;-44
2022/06/23 15:01:39;;;;;;;19.45;4.75;;;;;;;;;;5033336;28;20124;-43
2022/06/23 15:04:23;;;;;;;15.57;3.83;;;;;;;;;;5029672;28;20104;-44
2022/06/23 15:07:14;;;;;;;20.55;5.05;;;;;;;;;;5023019;28;20044;-44
2022/06/23 15:09:48;;;;;;;18.88;5.10;;;;;;;;;;5020935;28;20121;-43
2022/06/23 15:12:32;;;;;;;24.13;4.80;;;;;;;;;;5029366;28;20091;-44
2022/06/23 15:15:26;;;;;;;22.55;5.07;;;;;;;;;;5026371;28;20029;-43
2022/06/23 15:17:59;;;;;;;23.25;5.32;;;;;;;;;;5025416;28;20056;-44
2022/06/23 15:20:43;;;;;;;28.52;6.15;;;;;;;;;;5031242;28;20060;-44
2022/06/23 15:23:31;;;;;;;23.10;4.68;;;;;;;;;;5035660;28;20032;-43
2022/06/23 15:26:01;;;;;;;24.95;4.70;;;;;;;;;;5021600;28;20040;-41
2022/06/23 15:28:42;;;;;;;22.85;5.10;;;;;;;;;;5028666;28;20029;-43
2022/06/23 15:31:33;;;;;;;19.52;5.35;;;;;;;;;;5027646;28;20025;-43
2022/06/23 15:34:13;;;;;;;21.35;5.13;;;;;;;;;;5022314;28;20037;-44
2022/06/23 15:36:48;;;;;;;20.83;4.93;;;;;;;;;;5026808;28;20048;-44
2022/06/23 15:39:41;;;;;;;23.08;5.25;;;;;;;;;;5027948;28;20029;-44
2022/06/23 15:42:24;;;;;;;27.88;5.53;;;;;;;;;;5020721;28;20064;-44
2022/06/23 15:44:54;;;;;;;19.10;5.55;;;;;;;;;;5030383;28;20122;-44
2022/06/23 15:47:30;;;;;;;22.67;5.50;;;;;;;;;;5030993;28;20032;-45